createdAt,value
2023-04-10T00:00:56.950Z,25.10
2023-04-10T00:03:25.080Z,25.10
2023-04-10T00:05:54.955Z,25.10
2023-04-10T00:08:23.522Z,25.10
2023-04-10T00:10:51.275Z,25.00
2023-04-10T00:13:19.038Z,25.00
2023-04-10T00:15:46.739Z,25.00
2023-04-10T00:18:14.329Z,25.00
2023-04-10T00:20:42.561Z,25.00
2023-04-10T00:23:11.547Z,25.00
2023-04-10T00:25:39.225Z,25.00
2023-04-10T00:28:06.902Z,25.00
2023-04-10T00:30:34.550Z,25.00
2023-04-10T00:33:02.409Z,24.90
2023-04-10T00:35:30.076Z,24.90
2023-04-10T00:37:57.806Z,24.90
2023-04-10T00:40:27.296Z,24.90
2023-04-10T00:42:54.925Z,24.90
2023-04-10T00:45:22.722Z,24.90
2023-04-10T00:47:50.486Z,24.90
2023-04-10T00:50:18.537Z,24.90
2023-04-10T00:52:46.323Z,24.90
2023-04-10T00:55:14.186Z,24.90
2023-04-10T00:57:46.292Z,24.90
2023-04-10T01:00:15.376Z,24.80
2023-04-10T01:02:43.404Z,24.80
2023-04-10T01:05:13.378Z,24.80
2023-04-10T01:07:55.508Z,24.80
2023-04-10T01:10:30.572Z,24.80
2023-04-10T01:13:09.140Z,24.80
2023-04-10T01:15:45.354Z,24.80
2023-04-10T01:18:20.493Z,24.80
2023-04-10T01:20:48.209Z,24.80
2023-04-10T01:23:43.120Z,24.80
2023-04-10T01:26:12.268Z,24.70
2023-04-10T01:29:00.140Z,24.70
2023-04-10T01:31:33.735Z,24.70
2023-04-10T01:34:06.207Z,24.70
2023-04-10T01:36:38.901Z,24.70
2023-04-10T01:39:06.857Z,24.70
2023-04-10T01:41:35.037Z,24.70
2023-04-10T01:44:05.432Z,24.70
2023-04-10T01:46:34.486Z,24.70
2023-04-10T01:49:03.565Z,24.70
2023-04-10T01:51:32.744Z,24.70
2023-04-10T01:54:02.236Z,24.60
2023-04-10T01:56:30.133Z,24.60
2023-04-10T01:58:58.002Z,24.60
2023-04-10T02:01:30.234Z,24.60
2023-04-10T02:03:58.993Z,24.60
2023-04-10T02:06:41.964Z,24.60
2023-04-10T02:09:30.150Z,24.60
2023-04-10T02:12:03.049Z,24.60
2023-04-10T02:14:33.068Z,24.60
2023-04-10T02:17:03.713Z,24.60
2023-04-10T02:19:33.038Z,24.50
2023-04-10T02:22:00.940Z,24.50
2023-04-10T02:24:29.148Z,24.50
2023-04-10T02:26:57.784Z,24.50
2023-04-10T02:29:25.960Z,24.50
2023-04-10T02:31:53.861Z,24.50
2023-04-10T02:34:22.810Z,24.50
2023-04-10T02:36:50.460Z,24.50
2023-04-10T02:39:18.036Z,24.50
2023-04-10T02:41:46.472Z,24.50
2023-04-10T02:44:14.221Z,24.50
2023-04-10T02:46:42.522Z,24.50
2023-04-10T02:49:10.502Z,24.40
2023-04-10T02:51:39.496Z,24.40
2023-04-10T02:54:07.133Z,24.40
2023-04-10T02:56:35.600Z,24.40
2023-04-10T02:59:03.564Z,24.40
2023-04-10T03:01:32.034Z,24.40
2023-04-10T03:03:59.886Z,24.40
2023-04-10T03:06:28.143Z,24.40
2023-04-10T03:08:57.141Z,24.40
2023-04-10T03:11:24.806Z,24.40
2023-04-10T03:13:52.599Z,24.40
2023-04-10T03:16:20.683Z,24.30
2023-04-10T03:18:48.370Z,24.30
2023-04-10T03:21:15.992Z,24.30
2023-04-10T03:23:43.650Z,24.30
2023-04-10T03:26:12.586Z,24.30
2023-04-10T03:28:41.430Z,24.30
2023-04-10T03:31:09.754Z,24.30
2023-04-10T03:33:37.505Z,24.30
2023-04-10T03:36:05.732Z,24.30
2023-04-10T03:38:33.422Z,24.30
2023-04-10T03:41:01.090Z,24.30
2023-04-10T03:43:30.782Z,24.30
2023-04-10T03:45:58.400Z,24.30
2023-04-10T03:48:28.097Z,24.20
2023-04-10T03:50:56.098Z,24.20
2023-04-10T03:53:24.082Z,24.20
2023-04-10T03:55:52.546Z,24.20
2023-04-10T03:58:20.424Z,24.20
2023-04-10T04:00:49.377Z,24.20
2023-04-10T04:03:17.191Z,24.20
2023-04-10T04:05:44.983Z,24.20
2023-04-10T04:08:14.006Z,24.20
2023-04-10T04:10:41.742Z,24.20
2023-04-10T04:13:09.342Z,24.20
2023-04-10T04:15:36.984Z,24.20
2023-04-10T04:18:05.993Z,24.20
2023-04-10T04:20:33.643Z,24.20
2023-04-10T04:23:01.304Z,24.20
2023-04-10T04:25:28.896Z,24.20
2023-04-10T04:27:56.529Z,24.20
2023-04-10T04:30:24.173Z,24.20
2023-04-10T04:32:51.842Z,24.20
2023-04-10T04:35:21.020Z,24.20
2023-04-10T04:37:48.765Z,24.20
2023-04-10T04:40:16.631Z,24.20
2023-04-10T04:42:44.320Z,24.20
2023-04-10T04:45:12.543Z,24.20
2023-04-10T04:47:40.231Z,24.20
2023-04-10T04:50:09.600Z,24.20
2023-04-10T04:52:38.542Z,24.20
2023-04-10T04:55:07.058Z,24.20
2023-04-10T04:57:34.682Z,24.20
2023-04-10T05:00:02.351Z,24.20
2023-04-10T05:02:30.056Z,24.20
2023-04-10T05:04:57.894Z,24.20
2023-04-10T05:07:25.789Z,24.20
2023-04-10T05:09:54.826Z,24.20
2023-04-10T05:12:22.445Z,24.20
2023-04-10T05:14:50.073Z,24.20
2023-04-10T05:17:17.813Z,24.20
2023-04-10T05:19:45.621Z,24.20
2023-04-10T05:22:13.224Z,24.20
2023-04-10T05:24:40.852Z,24.30
2023-04-10T05:27:09.870Z,24.30
2023-04-10T05:29:37.501Z,24.30
2023-04-10T05:32:05.262Z,24.30
2023-04-10T05:34:32.875Z,24.40
2023-04-10T05:37:00.477Z,24.40
2023-04-10T05:39:29.607Z,24.40
2023-04-10T05:41:58.233Z,24.40
2023-04-10T05:44:27.205Z,24.50
2023-04-10T05:46:54.828Z,24.50
2023-04-10T05:49:22.497Z,24.50
2023-04-10T05:51:51.959Z,24.60
2023-04-10T05:54:19.760Z,24.60
2023-04-10T05:56:47.428Z,24.70
2023-04-10T05:59:15.278Z,24.80
2023-04-10T06:01:45.833Z,24.80
2023-04-10T06:04:13.614Z,24.90
2023-04-10T06:06:41.930Z,25.00
2023-04-10T06:09:09.627Z,25.00
2023-04-10T06:11:37.253Z,25.10
2023-04-10T06:14:05.034Z,25.20
2023-04-10T06:16:32.746Z,25.30
2023-04-10T06:19:01.751Z,25.30
2023-04-10T06:21:29.360Z,25.40
2023-04-10T06:23:56.991Z,25.50
2023-04-10T06:26:25.953Z,25.60
2023-04-10T06:28:53.849Z,25.60
2023-04-10T06:31:23.048Z,25.70
2023-04-10T06:33:50.812Z,25.80
2023-04-10T06:36:19.759Z,25.90
2023-04-10T06:38:47.369Z,25.90
2023-04-10T06:41:15.026Z,26.00
2023-04-10T06:43:42.612Z,26.00
2023-04-10T06:46:10.473Z,26.10
2023-04-10T06:48:38.111Z,26.10
2023-04-10T06:51:06.035Z,26.20
2023-04-10T06:53:34.994Z,26.20
2023-04-10T06:56:03.677Z,26.20
2023-04-10T06:58:31.604Z,26.20
2023-04-10T07:03:32.417Z,26.30
2023-04-10T07:06:01.964Z,26.30
2023-04-10T07:08:29.690Z,26.30
2023-04-10T07:10:58.981Z,26.30
2023-04-10T07:13:26.722Z,26.40
2023-04-10T07:15:54.399Z,26.40
2023-04-10T07:18:22.016Z,26.40
2023-04-10T07:20:50.100Z,26.50
2023-04-10T07:23:17.733Z,26.50
2023-04-10T07:25:45.723Z,26.60
2023-04-10T07:28:14.681Z,26.70
2023-04-10T07:30:42.330Z,26.80
2023-04-10T07:33:10.065Z,26.90
2023-04-10T07:35:37.814Z,27.10
2023-04-10T07:38:05.433Z,27.20
2023-04-10T07:40:33.173Z,27.40
2023-04-10T07:43:00.834Z,27.60
2023-04-10T07:45:29.833Z,27.70
2023-04-10T07:47:59.400Z,28.00
2023-04-10T07:50:27.094Z,28.20
2023-04-10T07:52:54.752Z,28.40
2023-04-10T07:55:22.622Z,28.60
2023-04-10T07:57:52.210Z,28.80
2023-04-10T08:00:20.244Z,29.00
2023-04-10T08:02:49.252Z,29.20
2023-04-10T08:05:17.048Z,29.40
2023-04-10T08:07:44.800Z,29.60
2023-04-10T08:10:12.839Z,29.80
2023-04-10T08:12:40.500Z,30.00
2023-04-10T08:15:08.716Z,30.20
2023-04-10T08:17:36.425Z,30.40
2023-04-10T08:20:06.596Z,30.60
2023-04-10T08:22:34.241Z,30.80
2023-04-10T08:25:01.837Z,30.90
2023-04-10T08:27:30.475Z,31.10
2023-04-10T08:29:58.290Z,31.20
2023-04-10T08:32:26.681Z,31.40
2023-04-10T08:34:54.377Z,31.50
2023-04-10T08:37:23.475Z,31.60
2023-04-10T08:39:51.058Z,31.80
2023-04-10T08:42:18.878Z,31.90
2023-04-10T08:44:46.796Z,31.90
2023-04-10T08:47:16.112Z,32.00
2023-04-10T08:49:50.376Z,32.10
2023-04-10T08:52:24.073Z,32.20
2023-04-10T08:54:56.007Z,32.20
2023-04-10T08:57:24.436Z,32.30
2023-04-10T08:59:52.631Z,32.30
2023-04-10T09:02:20.880Z,32.40
2023-04-10T09:04:50.732Z,32.40
2023-04-10T09:07:18.719Z,32.50
2023-04-10T09:09:48.012Z,32.50
2023-04-10T09:12:16.022Z,32.50
2023-04-10T09:14:44.470Z,32.50
2023-04-10T09:17:14.992Z,32.50
2023-04-10T09:19:43.045Z,32.50
2023-04-10T09:22:10.876Z,32.50
2023-04-10T09:24:39.387Z,32.50
2023-04-10T09:27:09.033Z,32.50
2023-04-10T09:29:45.016Z,32.50
2023-04-10T09:32:13.480Z,32.50
2023-04-10T09:34:54.824Z,32.50
2023-04-10T09:37:22.798Z,32.50
2023-04-10T09:39:50.731Z,32.50
2023-04-10T09:42:31.351Z,32.50
2023-04-10T09:44:59.555Z,32.40
2023-04-10T09:47:27.264Z,32.40
2023-04-10T09:49:56.386Z,32.40
2023-04-10T09:52:26.414Z,32.40
2023-04-10T09:54:54.368Z,32.30
2023-04-10T09:57:25.394Z,32.30
2023-04-10T09:59:54.089Z,32.20
2023-04-10T10:02:23.812Z,32.20
2023-04-10T10:04:52.868Z,32.20
2023-04-10T10:07:21.935Z,32.10
2023-04-10T10:09:51.661Z,32.10
2023-04-10T10:12:25.658Z,32.00
2023-04-10T10:15:01.898Z,32.00
2023-04-10T10:17:36.469Z,31.90
2023-04-10T10:20:08.363Z,31.90
2023-04-10T10:22:36.501Z,31.90
2023-04-10T10:25:05.326Z,31.80
2023-04-10T10:27:38.252Z,31.70
2023-04-10T10:30:25.372Z,31.70
2023-04-10T10:32:57.543Z,31.60
2023-04-10T10:35:27.981Z,31.60
2023-04-10T10:37:59.276Z,31.50
2023-04-10T10:40:32.369Z,31.40
2023-04-10T10:43:09.917Z,31.30
2023-04-10T10:45:42.153Z,31.30
2023-04-10T10:48:09.906Z,31.20
2023-04-10T10:50:56.331Z,31.10
2023-04-10T10:53:34.934Z,31.10
2023-04-10T10:56:36.707Z,31.00
2023-04-10T10:59:05.754Z,30.90
2023-04-10T11:01:33.601Z,30.90
2023-04-10T11:04:02.397Z,30.80
2023-04-10T11:06:51.024Z,30.70
2023-04-10T11:09:49.411Z,30.70
2023-04-10T11:12:18.015Z,30.60
2023-04-10T11:14:58.069Z,30.60
2023-04-10T11:17:47.885Z,30.50
2023-04-10T11:20:15.663Z,30.50
2023-04-10T11:23:11.866Z,30.40
2023-04-10T11:25:54.115Z,30.40
2023-04-10T11:28:38.023Z,30.30
2023-04-10T11:31:18.713Z,30.30
2023-04-10T11:33:48.626Z,30.20
2023-04-10T11:36:18.032Z,30.20
2023-04-10T11:38:56.410Z,30.20
2023-04-10T11:41:28.514Z,30.10
2023-04-10T11:43:56.404Z,30.10
2023-04-10T11:46:25.621Z,30.10
2023-04-10T11:48:54.526Z,30.00
2023-04-10T11:51:23.229Z,30.00
2023-04-10T11:53:51.048Z,30.00
2023-04-10T11:56:21.076Z,30.00
2023-04-10T11:58:54.729Z,29.90
2023-04-10T12:01:23.486Z,29.90
2023-04-10T12:03:52.696Z,29.90
2023-04-10T12:06:21.306Z,29.80
2023-04-10T12:08:51.111Z,29.80
2023-04-10T12:11:21.209Z,29.80
2023-04-10T12:13:49.083Z,29.80
2023-04-10T12:16:16.821Z,29.70
2023-04-10T12:18:45.488Z,29.70
2023-04-10T12:21:14.673Z,29.70
2023-04-10T12:23:43.403Z,29.70
2023-04-10T12:26:15.656Z,29.60
2023-04-10T12:28:52.598Z,29.60
2023-04-10T12:31:28.236Z,29.60
2023-04-10T12:33:57.731Z,29.60
2023-04-10T12:36:29.933Z,29.60
2023-04-10T12:38:58.381Z,29.50
2023-04-10T12:41:27.648Z,29.50
2023-04-10T12:44:53.607Z,29.50
2023-04-10T12:47:21.633Z,29.40
2023-04-10T12:50:10.096Z,29.40
2023-04-10T12:52:41.184Z,29.40
2023-04-10T12:55:14.646Z,29.30
2023-04-10T12:57:43.185Z,29.30
2023-04-10T13:00:12.923Z,29.30
2023-04-10T13:02:41.288Z,29.30
2023-04-10T13:05:10.408Z,29.30
2023-04-10T13:07:40.975Z,29.30
2023-04-10T13:10:10.118Z,29.30
2023-04-10T13:12:38.811Z,29.20
2023-04-10T13:15:07.678Z,29.20
2023-04-10T13:17:35.793Z,29.20
2023-04-10T13:20:04.627Z,29.20
2023-04-10T13:22:32.230Z,29.20
2023-04-10T13:25:01.181Z,29.10
2023-04-10T13:27:28.756Z,29.10
2023-04-10T13:29:56.373Z,29.10
2023-04-10T13:32:24.024Z,29.10
2023-04-10T13:34:51.629Z,29.00
2023-04-10T13:37:20.254Z,29.00
2023-04-10T13:39:47.818Z,29.00
2023-04-10T13:42:16.770Z,29.00
2023-04-10T13:44:44.423Z,29.00
2023-04-10T13:47:12.157Z,28.90
2023-04-10T13:49:39.798Z,28.90
2023-04-10T13:52:07.458Z,28.90
2023-04-10T13:54:35.024Z,28.90
2023-04-10T13:57:02.765Z,28.90
2023-04-10T13:59:31.797Z,28.90
2023-04-10T14:01:59.433Z,28.80
2023-04-10T14:04:27.043Z,28.80
2023-04-10T14:07:00.480Z,28.80
2023-04-10T14:09:28.216Z,28.80
2023-04-10T14:11:56.030Z,28.70
2023-04-10T14:14:24.676Z,28.70
2023-04-10T14:16:53.643Z,28.70
2023-04-10T14:19:21.288Z,28.70
2023-04-10T14:21:48.921Z,28.70
2023-04-10T14:24:16.456Z,28.70
2023-04-10T14:26:44.009Z,28.60
2023-04-10T14:29:11.577Z,28.60
2023-04-10T14:31:50.701Z,28.60
2023-04-10T14:34:26.096Z,28.60
2023-04-10T14:36:55.803Z,28.60
2023-04-10T14:39:25.079Z,28.50
2023-04-10T14:41:52.964Z,28.50
2023-04-10T14:44:20.634Z,28.50
2023-04-10T14:46:48.205Z,28.50
2023-04-10T14:49:16.068Z,28.50
2023-04-10T14:51:45.738Z,28.40
2023-04-10T14:54:13.324Z,28.40
2023-04-10T14:56:40.977Z,28.40
2023-04-10T14:59:08.564Z,28.40
2023-04-10T15:01:36.563Z,28.40
2023-04-10T15:04:04.453Z,28.40
2023-04-10T15:06:33.754Z,28.40
2023-04-10T15:09:04.699Z,28.30
2023-04-10T15:11:32.331Z,28.30
2023-04-10T15:14:02.143Z,28.30
2023-04-10T15:16:30.196Z,28.30
2023-04-10T15:18:57.842Z,28.30
2023-04-10T15:21:27.283Z,28.30
2023-04-10T15:23:54.980Z,28.30
2023-04-10T15:26:24.062Z,28.30
2023-04-10T15:28:51.690Z,28.20
2023-04-10T15:31:22.991Z,28.20
2023-04-10T15:33:52.803Z,28.20
2023-04-10T15:36:23.443Z,28.20
2023-04-10T15:38:51.030Z,28.20
2023-04-10T15:41:18.616Z,28.20
2023-04-10T15:43:48.055Z,28.20
2023-04-10T15:46:17.112Z,28.20
2023-04-10T15:48:45.922Z,28.20
2023-04-10T15:51:13.485Z,28.10
2023-04-10T15:53:41.138Z,28.10
2023-04-10T15:56:09.347Z,28.10
2023-04-10T15:58:37.012Z,28.10
2023-04-10T16:01:06.866Z,28.10
2023-04-10T16:03:34.773Z,28.10
2023-04-10T16:06:02.494Z,28.10
2023-04-10T16:08:30.115Z,28.00
2023-04-10T16:10:57.823Z,28.00
2023-04-10T16:13:25.547Z,28.00
2023-04-10T16:15:53.226Z,28.00
2023-04-10T16:18:22.150Z,28.00
2023-04-10T16:20:49.737Z,28.00
2023-04-10T16:23:17.344Z,28.00
2023-04-10T16:25:44.924Z,28.00
2023-04-10T16:28:12.524Z,27.90
2023-04-10T16:30:40.518Z,28.00
2023-04-10T16:33:08.166Z,27.90
2023-04-10T16:35:37.137Z,27.90
2023-04-10T16:38:05.291Z,27.90
2023-04-10T16:40:33.193Z,27.90
2023-04-10T16:43:01.825Z,27.90
2023-04-10T16:45:29.526Z,27.90
2023-04-10T16:47:57.280Z,27.90
2023-04-10T16:50:24.860Z,27.80
2023-04-10T16:52:53.953Z,27.80
2023-04-10T16:55:21.504Z,27.80
2023-04-10T16:57:49.074Z,27.80
2023-04-10T17:00:17.353Z,27.80
2023-04-10T17:02:45.074Z,27.80
2023-04-10T17:05:13.667Z,27.70
2023-04-10T17:07:43.070Z,27.70
2023-04-10T17:10:13.523Z,27.70
2023-04-10T17:12:42.380Z,27.70
2023-04-10T17:15:10.815Z,27.70
2023-04-10T17:17:38.481Z,27.70
2023-04-10T17:20:09.681Z,27.70
2023-04-10T17:22:38.794Z,27.60
2023-04-10T17:25:07.166Z,27.60
2023-04-10T17:27:37.881Z,27.60
2023-04-10T17:30:12.170Z,27.60
2023-04-10T17:32:41.703Z,27.60
2023-04-10T17:35:09.772Z,27.60
2023-04-10T17:37:37.399Z,27.60
2023-04-10T17:40:05.574Z,27.50
2023-04-10T17:42:33.206Z,27.50
2023-04-10T17:45:02.223Z,27.50
2023-04-10T17:47:30.131Z,27.50
2023-04-10T17:49:57.811Z,27.50
2023-04-10T17:52:25.566Z,27.50
2023-04-10T17:54:53.352Z,27.40
2023-04-10T17:57:21.086Z,27.40
2023-04-10T17:59:49.020Z,27.40
2023-04-10T18:02:18.199Z,27.40
2023-04-10T18:04:45.933Z,27.40
2023-04-10T18:07:13.560Z,27.40
2023-04-10T18:09:41.212Z,27.40
2023-04-10T18:12:08.954Z,27.30
2023-04-10T18:14:37.101Z,27.30
2023-04-10T18:17:04.840Z,27.30
2023-04-10T18:19:34.032Z,27.30
2023-04-10T18:22:01.679Z,27.30
2023-04-10T18:24:29.513Z,27.30
2023-04-10T18:26:57.225Z,27.20
2023-04-10T18:29:26.292Z,27.20
2023-04-10T18:31:54.087Z,27.20
2023-04-10T18:34:21.737Z,27.20
2023-04-10T18:36:50.747Z,27.20
2023-04-10T18:39:19.009Z,27.10
2023-04-10T18:41:46.671Z,27.10
2023-04-10T18:44:14.291Z,27.10
2023-04-10T18:46:46.369Z,27.10
2023-04-10T18:49:16.781Z,27.10
2023-04-10T18:51:44.409Z,27.10
2023-04-10T18:54:13.597Z,27.10
2023-04-10T18:56:41.213Z,27.10
2023-04-10T18:59:08.833Z,27.00
2023-04-10T19:01:36.526Z,27.00
2023-04-10T19:04:04.514Z,27.00
2023-04-10T19:06:32.901Z,27.00
2023-04-10T19:09:00.587Z,27.00
2023-04-10T19:11:29.669Z,27.00
2023-04-10T19:13:57.515Z,26.90
2023-04-10T19:16:25.422Z,26.90
2023-04-10T19:18:54.742Z,26.90
2023-04-10T19:21:22.910Z,26.90
2023-04-10T19:23:50.609Z,26.90
2023-04-10T19:26:19.977Z,26.90
2023-04-10T19:28:48.970Z,26.90
2023-04-10T19:31:16.794Z,26.80
2023-04-10T19:33:44.507Z,26.80
2023-04-10T19:36:12.180Z,26.80
2023-04-10T19:38:40.940Z,26.80
2023-04-10T19:41:15.093Z,26.80
2023-04-10T19:43:42.982Z,26.80
2023-04-10T19:46:18.579Z,26.80
2023-04-10T19:48:46.615Z,26.80
2023-04-10T19:51:14.316Z,26.80
2023-04-10T19:53:42.808Z,26.70
2023-04-10T19:56:10.619Z,26.70
2023-04-10T19:58:40.697Z,26.70
2023-04-10T20:01:10.240Z,26.70
2023-04-10T20:03:39.624Z,26.70
2023-04-10T20:06:08.366Z,26.70
2023-04-10T20:08:36.660Z,26.70
2023-04-10T20:11:06.024Z,26.70
2023-04-10T20:13:34.382Z,26.60
2023-04-10T20:16:02.146Z,26.60
2023-04-10T20:18:29.959Z,26.60
2023-04-10T20:20:58.945Z,26.60
2023-04-10T20:23:26.608Z,26.60
2023-04-10T20:25:54.291Z,26.60
2023-04-10T20:28:21.901Z,26.60
2023-04-10T20:30:49.539Z,26.60
2023-04-10T20:33:17.237Z,26.60
2023-04-10T20:35:44.898Z,26.50
2023-04-10T20:38:13.938Z,26.50
2023-04-10T20:40:41.576Z,26.50
2023-04-10T20:43:12.072Z,26.50
2023-04-10T20:45:40.376Z,26.50
2023-04-10T20:48:09.822Z,26.50
2023-04-10T20:50:37.966Z,26.50
2023-04-10T20:53:05.688Z,26.50
2023-04-10T20:55:38.326Z,26.50
2023-04-10T20:58:06.084Z,26.50
2023-04-10T21:00:34.502Z,26.40
2023-04-10T21:03:02.287Z,26.40
2023-04-10T21:05:29.997Z,26.40
2023-04-10T21:07:57.674Z,26.40
2023-04-10T21:10:25.447Z,26.40
2023-04-10T21:12:54.437Z,26.40
2023-04-10T21:15:22.408Z,26.40
2023-04-10T21:17:50.104Z,26.40
2023-04-10T21:20:17.937Z,26.30
2023-04-10T21:22:45.612Z,26.30
2023-04-10T21:25:13.299Z,26.30
2023-04-10T21:27:41.017Z,26.30
2023-04-10T21:30:10.903Z,26.30
2023-04-10T21:32:38.579Z,26.30
2023-04-10T21:35:07.125Z,26.30
2023-04-10T21:37:34.803Z,26.30
2023-04-10T21:40:02.457Z,26.30
2023-04-10T21:42:30.099Z,26.30
2023-04-10T21:44:58.749Z,26.30
2023-04-10T21:47:27.751Z,26.20
2023-04-10T21:49:55.423Z,26.20
2023-04-10T21:52:23.108Z,26.20
2023-04-10T21:54:50.896Z,26.20
2023-04-10T21:57:18.580Z,26.20
2023-04-10T21:59:46.204Z,26.20
2023-04-10T22:02:13.940Z,26.20
2023-04-10T22:04:53.848Z,26.20
2023-04-10T22:07:22.641Z,26.20
2023-04-10T22:09:50.298Z,26.20
2023-04-10T22:12:17.995Z,26.20
2023-04-10T22:14:46.107Z,26.20
2023-04-10T22:17:13.799Z,26.10
2023-04-10T22:19:42.817Z,26.10
2023-04-10T22:22:10.537Z,26.10
2023-04-10T22:24:38.212Z,26.10
2023-04-10T22:27:05.918Z,26.10
2023-04-10T22:29:34.818Z,26.10
2023-04-10T22:32:02.469Z,26.10
2023-04-10T22:34:30.139Z,26.10
2023-04-10T22:36:59.155Z,26.10
2023-04-10T22:39:26.879Z,26.10
2023-04-10T22:41:54.512Z,26.10
2023-04-10T22:44:22.169Z,26.00
2023-04-10T22:46:49.890Z,26.00
2023-04-10T22:49:17.606Z,26.00
2023-04-10T22:51:46.573Z,26.00
2023-04-10T22:54:16.187Z,26.00
2023-04-10T22:56:44.189Z,26.00
2023-04-10T22:59:12.054Z,26.00
2023-04-10T23:01:39.806Z,26.00
2023-04-10T23:04:07.605Z,26.00
2023-04-10T23:06:35.259Z,26.00
2023-04-10T23:09:03.359Z,26.00
2023-04-10T23:11:33.137Z,26.00
2023-04-10T23:14:00.816Z,26.00
2023-04-10T23:16:28.671Z,25.90
2023-04-10T23:18:56.595Z,25.90
2023-04-10T23:21:24.469Z,25.90
2023-04-10T23:23:52.138Z,25.90
2023-04-10T23:26:19.832Z,25.90
2023-04-10T23:28:48.879Z,25.90
2023-04-10T23:31:16.732Z,25.90
2023-04-10T23:33:44.584Z,25.90
2023-04-10T23:36:12.298Z,25.90
2023-04-10T23:38:40.062Z,25.90
2023-04-10T23:41:08.508Z,25.90
2023-04-10T23:43:36.163Z,25.90
2023-04-10T23:46:05.273Z,25.90
2023-04-10T23:48:32.941Z,25.90
2023-04-10T23:51:05.146Z,25.90
2023-04-10T23:53:33.276Z,25.80
2023-04-10T23:56:01.139Z,25.90
2023-04-10T23:58:28.870Z,25.80
